Aeroporto :







RITROVATECI SU...

 
LOGIN :

Iscrizione | Disclaimer

   EN    FR    IT 

 









Sommario :    VFR   VFR Marginale   IFR   IFR Intensivo   IFR Molto Intensivo
Visibilità : 
Base nubi : 
>= 8 km
>= 3000ft
5 / 8 km
1000 / 3000 ft
1500m / 5 km
500 / 1000 ft
800 / 1500m
200 / 500 ft
< 800m
< 200 ft
Simboli :   Temporali  Nebbia  Neve Forte  Precipitazioni Forti  Vento > 20 kt






- Altitudine del aeroporto : 1194 ft


KPSF - Pittsfield Municipal

ULTIMO METAR :
  • 280454Z AUTO 19006KT 10SM CLR 19/16 A3020 RMK AO2 SLP199 T01890161 402940144

METARs OBSOLETI :
  • 280354Z AUTO 00000KT 10SM CLR 19/17 A3020 RMK AO2 SLP197 T01940167
  • 280254Z AUTO 19004KT 10SM CLR 20/16 A3019 RMK AO2 SLP196 T02000161 51013

TAF KPSF
Valido dal 28 a 06 ore il 29 a 06 ore UTC


280538Z 2806/2906 19005KT P6SM FEW008 BKN200
FM280900 20005KT P6SM SCT008 BKN015
TEMPO 2809/2812 00000KT 2SM BR BKN008
FM281400 19010KT P6SM OVC015
PROB30 2818/2824 4SM -SHRA BR OVC015
FM290000 18010KT 5SM BR VCSH OVC008
FIR KZBW / America del Nord



MetMap, La meteo Aeronautica in un colpo d'occhio ! - Copyright ORBIFLY Dicembre 2007 - Disclaimer

ORBIFLY MET'MAP TEAM :

Programmazione e sviluppo : Alexandra Zaïnal
Concezione : Baudouin d'Aumeries
Aiuto per la programmazione : Marc-Olivier Méhu
Supporto tecnico e logistico : Manuel Goepfert
Aiuto per la traduzione : Arnaldo La Scala

Contatto : metmap@orbifly.com




FONTI E CREDITI :

   NOAA